Time;durP1;ratioP1;P1;durP2;ratioP2;P2;SDS_P1;SDS_P2;PMS_P1;PMS_P2;Temp;Humidity;BMP_temperature;BMP_pressure;BME280_temperature;BME280_humidity;BME280_pressure;Samples;Min_cycle;Max_cycle;Signal;HPM_P1;HPM_P2
2023/07/14 00:01:35;;;;;;;;;;;17.60;52.20;;;13.55;100.00;95814.03;4992813;28;19921;-48
2023/07/14 00:04:01;;;;;;;;;;;17.50;52.30;;;13.50;100.00;95822.09;4992070;28;19909;-48
2023/07/14 00:06:27;;;;;;;;;;;17.50;52.30;;;13.42;100.00;95816.25;4993155;28;20015;-46
2023/07/14 00:08:53;;;;;;;;;;;17.50;53.00;;;13.41;100.00;95820.03;4992415;28;19917;-52
2023/07/14 00:11:24;;;;;;;;;;;17.50;52.50;;;13.42;100.00;95823.50;4992927;28;19924;-51
2023/07/14 00:13:53;;;;;;;;;;;17.50;52.60;;;13.46;100.00;95818.38;5008095;28;19915;-52
2023/07/14 00:16:29;;;;;;;;;;;17.40;52.60;;;13.49;100.00;95820.50;4991703;28;19913;-50
2023/07/14 00:18:55;;;;;;;;;;;17.40;52.70;;;13.47;100.00;95820.75;4996337;28;20296;-51
2023/07/14 00:21:26;;;;;;;;;;;17.40;52.80;;;13.50;100.00;95811.38;4987124;28;19964;-47
2023/07/14 00:24:00;;;;;;;;;;;17.40;52.90;;;13.46;100.00;95813.81;4985543;28;19941;-48
2023/07/14 00:26:28;;;;;;;;;;;17.40;53.60;;;13.46;100.00;95799.66;4979209;28;19917;-47
2023/07/14 00:28:54;;;;;;;;;;;17.40;53.10;;;13.45;100.00;95806.09;4992631;28;19913;-46
2023/07/14 00:31:22;;;;;;;;;;;17.40;53.20;;;13.41;100.00;95798.63;4992747;28;19956;-46
2023/07/14 00:33:51;;;;;;;;;;;17.40;53.30;;;13.46;100.00;95799.66;4991801;28;19909;-46
2023/07/14 00:36:17;;;;;;;;;;;17.40;53.40;;;13.47;100.00;95798.56;4988236;28;20291;-46
2023/07/14 00:38:44;;;;;;;;;;;17.40;53.50;;;13.46;100.00;95796.97;4986427;28;19919;-50
2023/07/14 00:41:23;;;;;;;;;;;17.40;53.60;;;13.43;100.00;95798.31;4992579;28;19914;-47
2023/07/14 00:43:50;;;;;;;;;;;17.40;53.70;;;13.42;100.00;95791.38;5007730;28;19964;-48
2023/07/14 00:46:29;;;;;;;;;;;17.40;53.80;;;13.41;100.00;95790.59;4990766;28;20414;-46
2023/07/14 00:49:12;;;;;;;;;;;17.40;53.90;;;13.41;100.00;95779.06;4991557;28;19909;-49
2023/07/14 00:51:39;;;;;;;;;;;17.40;54.00;;;13.40;100.00;95780.16;4992127;28;19915;-50
2023/07/14 00:54:09;;;;;;;;;;;17.30;54.00;;;13.35;100.00;95772.97;4996750;28;20279;-48
2023/07/14 00:56:44;;;;;;;;;;;17.30;54.00;;;13.29;100.00;95778.63;4995474;28;19909;-48
2023/07/14 00:59:17;;;;;;;;;;;17.30;54.10;;;13.20;100.00;95779.16;4992034;28;19910;-47
2023/07/14 01:02:10;;;;;;;;;;;17.30;54.20;;;13.15;100.00;95770.38;4990780;28;19917;-46
2023/07/14 01:04:49;;;;;;;;;;;17.20;54.30;;;13.16;100.00;95774.63;4996326;28;19909;-48
2023/07/14 01:07:18;;;;;;;;;;;17.20;54.40;;;13.15;100.00;95760.47;5011311;28;19915;-47
2023/07/14 01:09:47;;;;;;;;;;;17.20;54.60;;;13.08;100.00;95759.19;4995573;28;19936;-46
2023/07/14 01:12:21;;;;;;;;;;;17.10;54.70;;;13.08;100.00;95761.84;4991807;28;19941;-49
2023/07/14 01:14:51;;;;;;;;;;;17.10;54.80;;;13.05;100.00;95759.72;4988119;28;19916;-48
2023/07/14 01:17:19;;;;;;;;;;;17.10;54.90;;;13.03;100.00;95754.63;4993611;28;19910;-50
2023/07/14 01:19:58;;;;;;;;;;;17.10;55.00;;;12.99;100.00;95753.59;4996123;28;19910;-46
2023/07/14 01:22:39;;;;;;;;;;;17.00;55.00;;;12.94;100.00;95761.63;4993637;28;19924;-49
2023/07/14 01:26:13;;;;;;;;;;;17.00;55.10;;;12.90;100.00;95763.25;4985104;28;19955;-46
2023/07/14 01:28:40;;;;;;;;;;;17.00;55.20;;;12.86;100.00;95756.88;4956901;28;20067;-49
2023/07/14 01:31:11;;;;;;;;;;;16.90;55.30;;;12.84;100.00;95751.78;4994159;28;20009;-47
2023/07/14 01:33:37;;;;;;;;;;;16.90;55.40;;;12.81;100.00;95749.66;4993916;28;19909;-46
2023/07/14 01:36:04;;;;;;;;;;;16.90;55.50;;;12.81;100.00;95746.19;4996010;28;20380;-46
2023/07/14 01:38:30;;;;;;;;;;;16.80;55.60;;;12.77;100.00;95739.81;5009688;28;19909;-46
2023/07/14 01:40:57;;;;;;;;;;;16.80;56.20;;;12.73;100.00;95740.34;4995828;28;19913;-49
2023/07/14 01:43:23;;;;;;;;;;;16.80;55.70;;;12.70;100.00;95738.22;5010866;28;19955;-47
2023/07/14 01:45:59;;;;;;;;;;;16.80;55.80;;;12.67;100.00;95740.66;4994670;28;20016;-46
2023/07/14 01:49:13;;;;;;;;;;;16.70;55.90;;;12.63;100.00;95750.28;4981531;28;19913;-46
2023/07/14 01:51:43;;;;;;;;;;;16.70;55.90;;;12.58;100.00;95744.97;4989373;28;19959;-48
2023/07/14 01:54:41;;;;;;;;;;;16.70;56.00;;;12.55;100.00;95746.31;5010437;28;19980;-49
2023/07/14 01:57:15;;;;;;;;;;;16.70;56.20;;;12.55;100.00;95737.50;5005743;28;19986;-49
2023/07/14 01:59:49;;;;;;;;;;;16.60;56.20;;;12.56;100.00;95734.53;5005118;28;20008;-47
2023/07/14 02:02:30;;;;;;;;;;;16.60;56.30;;;12.56;100.00;95728.38;4992738;28;19925;-49
2023/07/14 02:04:56;;;;;;;;;;;16.60;56.40;;;12.51;100.00;95731.91;4993346;28;19949;-47
2023/07/14 02:07:22;;;;;;;;;;;16.60;56.40;;;12.50;100.00;95732.94;4995606;28;20372;-48
2023/07/14 02:09:49;;;;;;;;;;;16.60;56.60;;;12.45;100.00;95728.44;4994742;28;19909;-48
2023/07/14 02:12:29;;;;;;;;;;;16.60;56.60;;;12.42;100.00;95726.31;4995760;28;19961;-47
2023/07/14 02:15:09;;;;;;;;;;;16.50;56.70;;;12.40;100.00;95736.47;4994515;28;19940;-52
2023/07/14 02:17:37;;;;;;;;;;;16.50;56.80;;;12.39;100.00;95732.19;4990975;28;19910;-49
2023/07/14 02:20:16;;;;;;;;;;;16.50;56.80;;;12.36;100.00;95727.41;4982398;28;20296;-47
2023/07/14 02:22:44;;;;;;;;;;;16.50;56.90;;;12.34;100.00;95726.06;4990904;28;19917;-50
2023/07/14 02:25:14;;;;;;;;;;;16.50;57.00;;;12.30;100.00;95720.47;4995673;28;19909;-47
2023/07/14 02:27:40;;;;;;;;;;;16.40;57.00;;;12.29;100.00;95718.88;4993378;28;19948;-52
2023/07/14 02:30:21;;;;;;;;;;;16.40;57.10;;;12.28;100.00;95706.56;4993104;28;20308;-51
2023/07/14 02:33:05;;;;;;;;;;;16.40;57.10;;;12.27;100.00;95711.13;4988819;28;19910;-50
2023/07/14 02:35:43;;;;;;;;;;;16.40;57.20;;;12.25;100.00;95713.28;4985844;28;19967;-52
2023/07/14 02:38:15;;;;;;;;;;;16.30;57.30;;;12.25;100.00;95701.78;4994222;28;19909;-50
2023/07/14 02:40:53;;;;;;;;;;;16.30;57.40;;;12.23;100.00;95710.06;4995114;28;19936;-50
2023/07/14 02:43:22;;;;;;;;;;;16.30;57.50;;;12.22;100.00;95705.81;4994930;28;19909;-46
2023/07/14 02:46:01;;;;;;;;;;;16.30;58.10;;;12.21;100.00;95700.72;4994169;28;20273;-51
2023/07/14 02:48:53;;;;;;;;;;;16.30;57.60;;;12.16;100.00;95709.56;4994866;28;19909;-48
2023/07/14 02:51:19;;;;;;;;;;;16.30;57.70;;;12.13;100.00;95709.31;4990427;28;19909;-49
2023/07/14 02:53:45;;;;;;;;;;;16.30;57.70;;;12.10;100.00;95707.97;4994675;28;19914;-48
2023/07/14 02:56:11;;;;;;;;;;;16.30;57.80;;;12.07;100.00;95711.19;4993696;28;19963;-52
2023/07/14 02:58:37;;;;;;;;;;;16.20;57.80;;;12.07;100.00;95703.19;4992508;28;20348;-48
2023/07/14 03:01:05;;;;;;;;;;;16.20;57.90;;;12.03;100.00;95691.41;4986009;28;19914;-50
2023/07/14 03:03:33;;;;;;;;;;;16.20;57.90;;;12.02;100.00;95692.50;4992443;28;19917;-50
2023/07/14 03:05:59;;;;;;;;;;;16.20;57.90;;;11.98;100.00;95692.25;4994666;28;20016;-48
2023/07/14 03:08:28;;;;;;;;;;;16.20;58.00;;;11.97;100.00;95697.84;4993235;28;19978;-50
2023/07/14 03:10:58;;;;;;;;;;;16.10;58.00;;;11.91;100.00;95698.91;4993478;28;19931;-48
2023/07/14 03:13:25;;;;;;;;;;;16.10;58.00;;;11.84;100.00;95695.69;4994041;28;20016;-46
2023/07/14 03:15:51;;;;;;;;;;;16.10;58.10;;;11.83;100.00;95697.56;4992725;28;20007;-49
2023/07/14 03:18:18;;;;;;;;;;;16.10;58.70;;;11.83;100.00;95689.56;4993075;28;20331;-48
2023/07/14 03:20:44;;;;;;;;;;;16.10;58.20;;;11.80;100.00;95688.22;4993590;28;20357;-47
2023/07/14 03:23:10;;;;;;;;;;;16.10;58.20;;;11.76;100.00;95689.84;4994251;28;20022;-51
2023/07/14 03:25:36;;;;;;;;;;;16.00;58.20;;;11.73;100.00;95687.72;4994084;28;19909;-49
2023/07/14 03:28:03;;;;;;;;;;;16.00;58.80;;;11.71;100.00;95686.38;4988885;28;19952;-48
2023/07/14 03:30:36;;;;;;;;;;;16.00;58.20;;;11.63;100.00;95690.41;4987467;28;19913;-44
2023/07/14 03:33:02;;;;;;;;;;;15.90;58.20;;;11.66;100.00;95692.53;4980944;28;19963;-46
2023/07/14 03:35:28;;;;;;;;;;;15.90;58.20;;;11.62;100.00;95686.13;4994121;28;19914;-46
2023/07/14 03:37:53;;;;;;;;;;;15.90;58.20;;;11.58;100.00;95685.06;4994035;28;19935;-46
2023/07/14 03:40:19;;;;;;;;;;;15.80;58.20;;;11.54;100.00;95690.13;4993159;28;19909;-48
2023/07/14 03:42:45;;;;;;;;;;;15.80;58.30;;;11.53;100.00;95685.88;4993862;28;19916;-45
2023/07/14 03:45:10;;;;;;;;;;;15.80;58.40;;;11.52;100.00;95691.47;4992823;28;19909;-45
2023/07/14 03:47:38;;;;;;;;;;;15.80;58.50;;;11.48;100.00;95679.75;4993733;28;19909;-45
2023/07/14 03:50:04;;;;;;;;;;;15.70;58.40;;;11.47;100.00;95680.78;4993817;28;19961;-44
2023/07/14 03:52:31;;;;;;;;;;;15.70;58.50;;;11.45;100.00;95677.59;4993040;28;20280;-46
2023/07/14 03:54:57;;;;;;;;;;;15.70;58.50;;;11.45;100.00;95673.06;4993787;28;19944;-46
2023/07/14 03:57:22;;;;;;;;;;;15.70;58.60;;;11.43;100.00;95674.41;4992822;28;20341;-46
2023/07/14 03:59:48;;;;;;;;;;;15.70;58.60;;;11.45;100.00;95678.41;4985088;28;19909;-44
2023/07/14 04:02:16;;;;;;;;;;;15.70;58.60;;;11.46;100.00;95673.88;4992044;28;26927;-51
2023/07/14 04:04:41;;;;;;;;;;;15.70;58.60;;;11.46;100.00;95669.31;4991716;28;19971;-52
2023/07/14 04:07:07;;;;;;;;;;;15.70;58.70;;;11.45;100.00;95670.41;4982086;28;19936;-48
2023/07/14 04:09:33;;;;;;;;;;;15.70;58.70;;;11.44;100.00;95660.81;4992185;28;19945;-51
2023/07/14 04:11:59;;;;;;;;;;;15.70;58.70;;;11.44;100.00;95666.16;4993220;28;20003;-51
2023/07/14 04:14:24;;;;;;;;;;;15.70;58.80;;;11.43;100.00;95669.84;4991968;28;19940;-49
2023/07/14 04:16:50;;;;;;;;;;;15.70;58.80;;;11.43;100.00;95658.38;4993040;28;20004;-49
2023/07/14 04:19:16;;;;;;;;;;;15.70;58.80;;;11.43;100.00;95659.19;4979796;28;20253;-52
2023/07/14 04:21:42;;;;;;;;;;;15.70;58.80;;;11.45;100.00;95659.72;4991916;28;19914;-48
2023/07/14 04:24:08;;;;;;;;;;;15.70;58.80;;;11.47;100.00;95665.59;4992746;28;20004;-50
2023/07/14 04:26:33;;;;;;;;;;;15.80;58.90;;;11.48;100.00;95645.06;4991809;28;20015;-48
2023/07/14 04:28:59;;;;;;;;;;;15.80;58.90;;;11.51;100.00;95647.19;4990200;28;19909;-51
2023/07/14 04:31:25;;;;;;;;;;;15.80;58.90;;;11.53;100.00;95648.53;4992759;28;19909;-49
2023/07/14 04:33:52;;;;;;;;;;;15.80;58.90;;;11.66;100.00;95651.69;4991769;28;19996;-48
2023/07/14 04:36:18;;;;;;;;;;;15.80;58.90;;;11.84;100.00;95647.66;4993167;28;20016;-52
2023/07/14 04:39:08;;;;;;;;;;;15.90;59.00;;;12.09;100.00;95652.16;4991654;28;20414;-51
2023/07/14 04:41:35;;;;;;;;;;;16.00;59.00;;;12.30;100.00;95652.91;4992912;28;20323;-52
2023/07/14 04:44:09;;;;;;;;;;;16.20;59.10;;;12.55;100.00;95657.34;4992490;28;20013;-48
2023/07/14 04:46:34;;;;;;;;;;;16.40;59.10;;;12.78;100.00;95655.88;4992637;28;19963;-49
2023/07/14 04:49:00;;;;;;;;;;;16.50;59.00;;;13.03;100.00;95653.03;4992629;28;19944;-50
2023/07/14 04:51:26;;;;;;;;;;;16.70;59.00;;;13.30;100.00;95649.13;4991537;28;20277;-46
2023/07/14 04:53:53;;;;;;;;;;;16.90;58.80;;;13.52;100.00;95646.81;4992742;28;19960;-48
2023/07/14 04:56:20;;;;;;;;;;;17.20;58.80;;;13.68;100.00;95650.13;4991877;28;19909;-50
2023/07/14 04:58:46;;;;;;;;;;;17.50;58.70;;;13.98;100.00;95640.22;4990993;28;20332;-48
2023/07/14 05:01:12;;;;;;;;;;;17.70;58.50;;;14.25;100.00;95642.31;4984671;28;19952;-50
2023/07/14 05:03:38;;;;;;;;;;;18.00;58.40;;;14.57;100.00;95649.72;4991755;28;19940;-53
2023/07/14 05:06:03;;;;;;;;;;;18.30;58.30;;;14.81;100.00;95644.31;4992411;28;20004;-51
2023/07/14 05:08:29;;;;;;;;;;;18.50;58.20;;;14.89;100.00;95640.19;4991739;28;20277;-47
2023/07/14 05:10:55;;;;;;;;;;;18.70;58.10;;;14.85;100.00;95631.91;4992581;28;19968;-47
2023/07/14 05:13:20;;;;;;;;;;;18.80;58.00;;;14.75;98.91;95640.88;4992271;28;19916;-50
2023/07/14 05:15:46;;;;;;;;;;;18.90;57.80;;;14.75;98.85;95646.25;4987825;28;19909;-48
2023/07/14 05:18:12;;;;;;;;;;;18.90;57.60;;;14.75;99.30;95643.56;4985064;28;19909;-46
2023/07/14 05:20:40;;;;;;;;;;;19.00;57.50;;;14.81;98.61;95638.94;4991449;28;19917;-47
2023/07/14 05:23:06;;;;;;;;;;;19.10;57.40;;;15.01;98.87;95643.19;4992395;28;19910;-49
2023/07/14 05:25:32;;;;;;;;;;;19.30;58.00;;;15.20;96.92;95635.16;4992289;28;20387;-45
2023/07/14 05:27:57;;;;;;;;;;;19.50;57.30;;;15.49;95.36;95643.81;4991189;28;19913;-50
2023/07/14 05:30:24;;;;;;;;;;;19.70;57.20;;;15.83;94.10;95640.03;4990167;28;19920;-50
2023/07/14 05:32:50;;;;;;;;;;;19.90;57.00;;;16.16;91.61;95645.34;4991069;28;19910;-48
2023/07/14 05:35:17;;;;;;;;;;;20.20;56.90;;;16.49;90.59;95640.66;4992516;28;20008;-47
2023/07/14 05:37:44;;;;;;;;;;;20.50;56.80;;;16.76;88.35;95645.22;4992982;28;19910;-47
2023/07/14 05:40:13;;;;;;;;;;;20.70;56.60;;;16.93;86.82;95644.59;4994844;28;19915;-48
2023/07/14 05:42:41;;;;;;;;;;;21.10;56.40;;;17.14;85.11;95641.44;4991678;28;19949;-52
2023/07/14 05:45:09;;;;;;;;;;;21.40;56.10;;;17.34;83.83;95641.75;4989099;28;19963;-46
2023/07/14 05:47:38;;;;;;;;;;;21.70;55.80;;;17.56;82.45;95640.94;4991422;28;19916;-51
2023/07/14 05:50:06;;;;;;;;;;;22.00;55.60;;;17.83;81.27;95643.81;4987135;28;19920;-46
2023/07/14 05:52:34;;;;;;;;;;;22.30;55.30;;;18.04;80.66;95655.66;4991681;28;19921;-48
2023/07/14 05:55:00;;;;;;;;;;;22.60;55.00;;;18.33;76.48;95651.66;4993630;28;19933;-46
2023/07/14 05:57:26;;;;;;;;;;;23.00;54.80;;;18.53;75.66;95656.50;4992791;28;19940;-47
2023/07/14 05:59:52;;;;;;;;;;;23.30;54.40;;;18.77;73.35;95650.72;4992904;28;19947;-50
2023/07/14 06:02:19;;;;;;;;;;;23.60;54.10;;;19.07;71.79;95653.59;4994265;28;20462;-46
2023/07/14 06:04:45;;;;;;;;;;;23.90;53.90;;;19.37;69.35;95649.94;4995151;28;20295;-47
2023/07/14 06:07:15;;;;;;;;;;;24.30;53.40;;;19.63;67.56;95644.50;4995240;28;19909;-51
2023/07/14 06:09:42;;;;;;;;;;;24.50;52.90;;;19.94;67.67;95648.91;4994236;28;19925;-53
2023/07/14 06:12:11;;;;;;;;;;;24.80;52.40;;;20.19;67.90;95641.06;4995324;28;20300;-51
2023/07/14 06:14:39;;;;;;;;;;;25.10;52.10;;;20.33;66.24;95639.69;4994526;28;19918;-50
2023/07/14 06:17:08;;;;;;;;;;;25.30;51.80;;;20.38;66.79;95637.94;4995092;28;20364;-50
2023/07/14 06:19:36;;;;;;;;;;;25.50;51.40;;;20.53;66.21;95638.22;4979710;28;19992;-49
2023/07/14 06:22:04;;;;;;;;;;;25.80;51.00;;;20.67;66.32;95637.19;4993651;28;20003;-50
2023/07/14 06:24:30;;;;;;;;;;;25.90;50.70;;;20.70;66.76;95628.41;4995023;28;20376;-48
2023/07/14 06:26:56;;;;;;;;;;;26.10;50.50;;;20.77;63.33;95634.88;5006135;28;19964;-49
2023/07/14 06:29:22;;;;;;;;;;;26.20;50.30;;;20.90;64.84;95640.38;4989531;28;19915;-48
2023/07/14 06:31:48;;;;;;;;;;;26.40;50.00;;;21.08;64.07;95635.63;4995091;28;19967;-48
2023/07/14 06:34:14;;;;;;;;;;;26.50;49.70;;;21.18;62.69;95633.31;4993993;28;20008;-53
2023/07/14 06:36:40;;;;;;;;;;;26.70;49.50;;;21.29;63.29;95635.63;4994791;28;20007;-50
2023/07/14 06:39:07;;;;;;;;;;;26.80;49.30;;;21.00;63.52;95635.38;4993607;28;19909;-50
2023/07/14 06:41:33;;;;;;;;;;;26.80;49.00;;;21.15;63.72;95630.47;4994917;28;19909;-51
2023/07/14 06:44:00;;;;;;;;;;;26.90;49.60;;;20.95;65.98;95626.66;4994893;28;19909;-49
2023/07/14 06:46:26;;;;;;;;;;;26.80;48.70;;;21.07;65.13;95623.22;4994102;28;20276;-53
2023/07/14 06:48:52;;;;;;;;;;;26.90;48.60;;;21.25;63.92;95617.34;4993835;28;19913;-47
2023/07/14 06:51:17;;;;;;;;;;;26.90;48.40;;;21.44;65.00;95610.69;4993413;28;19971;-48
2023/07/14 06:53:45;;;;;;;;;;;27.00;48.30;;;21.73;62.37;95607.03;4994767;28;19919;-51
2023/07/14 06:56:11;;;;;;;;;;;27.10;48.30;;;22.04;61.73;95600.31;4994302;28;19913;-52
2023/07/14 06:58:37;;;;;;;;;;;27.30;48.20;;;22.27;59.64;95598.75;4899958;28;24179;-50
2023/07/14 07:01:03;;;;;;;;;;;27.50;48.20;;;22.46;59.73;95609.06;4930464;28;20299;-53
2023/07/14 07:03:30;;;;;;;;;;;27.70;48.00;;;22.60;58.90;95604.06;4954521;28;20013;-50
2023/07/14 07:05:56;;;;;;;;;;;27.90;47.90;;;22.55;58.03;95595.38;4956084;28;19921;-54
2023/07/14 07:08:23;;;;;;;;;;;28.00;47.50;;;22.68;57.15;95588.78;4954957;28;19910;-50
2023/07/14 07:10:49;;;;;;;;;;;28.10;47.20;;;22.75;56.89;95593.63;4955534;28;19914;-48
2023/07/14 07:13:16;;;;;;;;;;;28.20;47.00;;;22.89;57.43;95596.78;4955364;28;19910;-52
2023/07/14 07:15:42;;;;;;;;;;;28.50;46.90;;;23.02;55.88;95589.44;4954230;28;19960;-51
2023/07/14 07:18:09;;;;;;;;;;;28.80;46.60;;;23.28;54.78;95587.09;4955185;28;19941;-48
2023/07/14 07:20:42;;;;;;;;;;;29.00;46.20;;;23.43;54.08;95584.75;4954480;28;19910;-48
2023/07/14 07:23:09;;;;;;;;;;;29.30;45.90;;;23.44;53.81;95580.88;4954933;28;19914;-53
2023/07/14 07:25:35;;;;;;;;;;;29.40;45.60;;;23.76;53.52;95588.00;4955072;28;19910;-53
2023/07/14 07:28:02;;;;;;;;;;;29.60;46.00;;;23.91;52.93;95585.66;4954231;28;19910;-53
2023/07/14 07:30:27;;;;;;;;;;;29.80;45.10;;;24.20;52.34;95590.66;4955239;28;19914;-51
2023/07/14 07:32:53;;;;;;;;;;;30.10;44.90;;;24.15;51.60;95584.69;4941338;28;20384;-48
2023/07/14 07:35:19;;;;;;;;;;;30.20;44.50;;;24.40;51.11;95579.84;4955118;28;19914;-53
2023/07/14 07:37:45;;;;;;;;;;;30.40;44.40;;;24.65;50.52;95583.97;4955155;28;20365;-52
2023/07/14 07:40:11;;;;;;;;;;;30.60;44.10;;;24.90;49.51;95578.28;4953872;28;19968;-50
2023/07/14 07:42:38;;;;;;;;;;;30.70;43.80;;;25.27;47.90;95575.97;4955043;28;19910;-52
2023/07/14 07:45:04;;;;;;;;;;;30.90;43.60;;;25.28;48.41;95569.34;4954063;28;19921;-53
2023/07/14 07:47:31;;;;;;;;;;;31.10;43.50;;;25.38;48.38;95573.44;4954779;28;19914;-53
2023/07/14 07:49:57;;;;;;;;;;;31.30;43.30;;;25.51;47.36;95577.59;4955154;28;19910;-53
2023/07/14 07:52:23;;;;;;;;;;;31.60;43.10;;;25.76;47.49;95572.63;4953613;28;20313;-53
2023/07/14 07:54:49;;;;;;;;;;;31.90;42.90;;;26.17;46.85;95572.94;4954725;28;19910;-51
2023/07/14 07:57:15;;;;;;;;;;;32.10;42.60;;;26.47;46.66;95577.69;4942773;28;19917;-48
2023/07/14 07:59:40;;;;;;;;;;;32.40;42.40;;;26.36;45.49;95577.53;4946029;28;20284;-49
2023/07/14 08:02:07;;;;;;;;;;;32.70;42.10;;;26.49;46.66;95568.00;4957700;28;19955;-48
2023/07/14 08:04:33;;;;;;;;;;;32.90;41.70;;;26.73;44.50;95569.53;4992371;28;19913;-48
2023/07/14 08:07:00;;;;;;;;;;;33.00;41.30;;;27.15;44.04;95570.50;4980331;28;19909;-49
2023/07/14 08:09:25;;;;;;;;;;;33.30;40.90;;;27.30;44.55;95568.72;4992393;28;19909;-54
2023/07/14 08:11:56;;;;;;;;;;;33.50;40.70;;;27.20;43.45;95561.94;4993146;28;20279;-51
2023/07/14 08:14:22;;;;;;;;;;;33.70;40.40;;;27.32;45.15;95561.72;4992166;28;19916;-53
2023/07/14 08:16:48;;;;;;;;;;;33.90;39.90;;;27.47;44.66;95556.41;4992566;28;19921;-51
2023/07/14 08:19:14;;;;;;;;;;;34.10;39.80;;;27.63;45.75;95557.75;4990937;28;20384;-49
2023/07/14 08:21:40;;;;;;;;;;;34.20;39.60;;;27.61;44.64;95554.63;4990993;28;19909;-50
2023/07/14 08:24:08;;;;;;;;;;;34.30;39.40;;;27.23;44.88;95555.75;4991136;28;19913;-54
2023/07/14 08:26:36;;;;;;;;;;;34.30;39.20;;;27.51;46.79;95558.00;4991262;28;20001;-50
2023/07/14 08:29:04;;;;;;;;;;;34.30;39.60;;;27.33;45.00;95559.78;4990050;28;20012;-48
2023/07/14 08:31:31;;;;;;;;;;;34.30;38.70;;;27.22;45.74;95562.38;4992933;28;19913;-54
2023/07/14 08:33:58;;;;;;;;;;;34.10;38.40;;;26.81;45.12;95551.28;4991828;28;19964;-52
2023/07/14 08:36:24;;;;;;;;;;;34.00;38.30;;;27.00;46.45;95551.16;4993004;28;19909;-52
2023/07/14 08:38:54;;;;;;;;;;;34.00;38.30;;;27.24;45.59;95543.66;4991699;28;20265;-50
2023/07/14 08:41:38;;;;;;;;;;;34.00;38.40;;;27.42;44.79;95544.66;4992732;28;20000;-49
2023/07/14 08:44:41;;;;;;;;;;;34.00;38.30;;;27.16;45.12;95547.47;4991725;28;20295;-50
2023/07/14 08:47:16;;;;;;;;;;;34.00;38.10;;;27.17;46.51;95549.84;4958028;28;20372;-51
2023/07/14 08:49:47;;;;;;;;;;;33.90;37.90;;;27.33;45.59;95546.13;4978716;28;19916;-49
2023/07/14 08:52:44;;;;;;;;;;;33.90;37.90;;;26.74;47.14;95540.28;4988490;28;19918;-51
2023/07/14 08:55:29;;;;;;;;;;;34.00;37.80;;;26.85;46.88;95538.44;4995546;28;19944;-49
2023/07/14 08:58:04;;;;;;;;;;;34.10;37.70;;;26.82;45.85;95539.19;4990583;28;20008;-50
2023/07/14 09:00:44;;;;;;;;;;;34.10;37.60;;;27.15;46.80;95540.44;4983381;28;19924;-51
2023/07/14 09:03:44;;;;;;;;;;;34.20;37.50;;;27.50;44.93;95537.31;4991169;28;20430;-53
2023/07/14 09:06:36;;;;;;;;;;;34.30;37.60;;;27.57;47.46;95531.91;4990617;28;19941;-55
2023/07/14 09:09:11;;;;;;;;;;;34.30;37.10;;;27.74;45.20;95536.00;4981461;28;20056;-50
2023/07/14 09:12:21;;;;;;;;;;;34.30;37.30;;;27.59;45.43;95529.59;4991183;28;19913;-48
2023/07/14 09:15:06;;;;;;;;;;;34.40;37.30;;;27.93;45.82;95531.50;4964698;28;19913;-52
2023/07/14 09:17:52;;;;;;;;;;;34.50;37.20;;;28.49;44.37;95533.13;4992538;28;20112;-54
2023/07/14 09:20:30;;;;;;;;;;;34.60;37.20;;;28.60;43.81;95531.22;4986005;28;19956;-51
2023/07/14 09:23:24;;;;;;;;;;;34.80;37.00;;;28.70;43.20;95530.50;4996196;28;20005;-52
2023/07/14 09:25:58;;;;;;;;;;;34.90;36.90;;;28.86;44.05;95526.66;4996173;28;20003;-54
2023/07/14 09:28:35;;;;;;;;;;;35.00;36.80;;;28.86;42.57;95518.44;4994382;28;20407;-54
2023/07/14 09:31:19;;;;;;;;;;;35.20;36.60;;;28.75;44.89;95524.66;4993944;28;20364;-51
2023/07/14 09:33:54;;;;;;;;;;;35.40;36.30;;;28.70;43.29;95516.03;4969505;28;19968;-55
2023/07/14 09:36:21;;;;;;;;;;;35.50;36.20;;;28.95;43.71;95524.38;4996125;28;20435;-54
2023/07/14 09:38:55;;;;;;;;;;;35.50;36.10;;;28.72;43.65;95511.72;5009764;28;19909;-50
2023/07/14 09:41:25;;;;;;;;;;;35.50;36.10;;;29.03;43.38;95504.84;4991102;28;20031;-52
2023/07/14 09:43:57;;;;;;;;;;;35.50;36.10;;;29.27;43.77;95502.56;4992287;28;19925;-52
2023/07/14 09:46:25;;;;;;;;;;;35.50;36.00;;;27.89;44.41;95507.63;4988296;28;19910;-54
2023/07/14 09:49:09;;;;;;;;;;;35.50;35.80;;;28.06;43.87;95499.94;4995687;28;19909;-52
2023/07/14 09:51:37;;;;;;;;;;;35.50;35.80;;;28.64;43.80;95501.09;4993765;28;19913;-54
2023/07/14 09:54:21;;;;;;;;;;;35.60;35.80;;;29.28;44.01;95506.91;4982929;28;19910;-54
2023/07/14 09:56:46;;;;;;;;;;;35.70;35.70;;;29.30;42.91;95501.78;4994551;28;19909;-50
2023/07/14 09:59:22;;;;;;;;;;;35.80;35.60;;;29.47;42.51;95500.28;4990564;28;19916;-53
2023/07/14 10:01:54;;;;;;;;;;;36.00;35.60;;;29.86;42.29;95500.34;4992567;28;19917;-50
2023/07/14 10:04:28;;;;;;;;;;;36.10;35.40;;;30.01;41.65;95501.16;4994546;28;19967;-49
2023/07/14 10:06:54;;;;;;;;;;;36.40;35.20;;;29.57;42.07;95505.00;4995345;28;19913;-47
2023/07/14 10:09:22;;;;;;;;;;;36.50;35.00;;;29.82;41.43;95496.06;4994336;28;19917;-47
2023/07/14 10:11:52;;;;;;;;;;;36.60;34.80;;;30.22;42.09;95499.63;4995322;28;20015;-50
2023/07/14 10:14:25;;;;;;;;;;;36.80;34.70;;;30.47;40.51;95491.34;4995252;28;20376;-47
2023/07/14 10:16:56;;;;;;;;;;;37.00;34.50;;;30.43;41.21;95480.38;4995208;28;19916;-47
2023/07/14 10:19:32;;;;;;;;;;;37.20;34.30;;;30.39;40.97;95490.56;4978154;28;19960;-48
2023/07/14 10:22:17;;;;;;;;;;;37.30;34.10;;;30.37;40.69;95482.72;4993292;28;19948;-48
2023/07/14 10:24:53;;;;;;;;;;;37.50;34.10;;;30.04;40.87;95481.16;4994661;28;19941;-48
2023/07/14 10:27:30;;;;;;;;;;;37.60;33.80;;;30.32;39.57;95469.38;4994036;28;20335;-48
2023/07/14 10:30:31;;;;;;;;;;;37.70;34.30;;;30.23;40.78;95471.75;4991900;28;20000;-50
2023/07/14 10:33:01;;;;;;;;;;;37.80;33.40;;;30.72;38.19;95458.31;4994060;28;19910;-49
2023/07/14 10:35:31;;;;;;;;;;;38.10;33.90;;;30.98;38.51;95459.78;4993706;28;19910;-51
2023/07/14 10:38:30;;;;;;;;;;;38.40;33.20;;;31.16;38.16;95452.25;4995052;28;19913;-47
2023/07/14 10:41:07;;;;;;;;;;;38.80;32.90;;;30.64;39.28;95458.31;4992184;28;19909;-48
2023/07/14 10:44:03;;;;;;;;;;;39.10;32.70;;;30.61;37.88;95450.84;4994783;28;19920;-47
2023/07/14 10:46:46;;;;;;;;;;;39.10;32.60;;;31.22;36.55;95450.63;4965636;28;19997;-49
2023/07/14 10:49:15;;;;;;;;;;;39.30;32.40;;;30.89;37.54;95450.00;4994234;28;19963;-49
2023/07/14 10:52:03;;;;;;;;;;;39.20;32.00;;;30.66;36.24;95441.44;4993590;28;19920;-50
2023/07/14 10:54:56;;;;;;;;;;;39.20;32.10;;;30.55;36.73;95438.69;4983406;28;19909;-47
2023/07/14 10:57:38;;;;;;;;;;;39.10;32.00;;;31.26;36.58;95434.88;4992706;28;19909;-51
2023/07/14 11:00:35;;;;;;;;;;;39.10;32.00;;;31.56;35.58;95442.59;4993445;28;19909;-47
2023/07/14 11:03:38;;;;;;;;;;;39.10;31.80;;;31.65;33.79;95433.06;4987872;28;19918;-49
2023/07/14 11:06:10;;;;;;;;;;;39.10;31.70;;;31.91;33.80;95435.28;4968286;28;19909;-47
2023/07/14 11:08:37;;;;;;;;;;;39.20;31.60;;;31.88;36.11;95435.28;4992245;28;20373;-47
2023/07/14 11:11:27;;;;;;;;;;;39.30;31.30;;;31.41;35.11;95440.34;4994356;28;19917;-48
2023/07/14 11:14:24;;;;;;;;;;;39.30;31.00;;;32.13;34.99;95438.59;4981510;28;19914;-49
2023/07/14 11:17:04;;;;;;;;;;;39.40;30.90;;;32.46;34.45;95433.56;4993083;28;20008;-48
2023/07/14 11:19:42;;;;;;;;;;;39.50;31.00;;;32.54;32.98;95431.53;4994154;28;20410;-49
2023/07/14 11:22:49;;;;;;;;;;;39.40;31.00;;;31.50;35.92;95435.94;4992701;28;19913;-47
2023/07/14 11:25:30;;;;;;;;;;;39.40;30.70;;;31.47;35.13;95428.50;4976881;28;19910;-48
2023/07/14 11:28:17;;;;;;;;;;;39.40;30.70;;;32.03;34.85;95414.72;4991766;28;19941;-48
2023/07/14 11:30:51;;;;;;;;;;;39.40;30.70;;;31.56;34.99;95411.53;4992632;28;19916;-47
2023/07/14 11:33:53;;;;;;;;;;;39.60;30.70;;;32.54;35.38;95409.47;4992807;28;19909;-47
2023/07/14 11:36:38;;;;;;;;;;;39.70;30.50;;;31.92;33.46;95406.53;4979612;28;20007;-47